createdAt,value
2023-02-14T00:00:15.249Z,96.33
2023-02-14T00:01:17.007Z,95.26
2023-02-14T00:02:20.300Z,94.85
2023-02-14T00:03:21.992Z,94.44
2023-02-14T00:04:25.065Z,94.17
2023-02-14T00:05:26.750Z,93.13
2023-02-14T00:06:32.689Z,93.02
2023-02-14T00:07:35.278Z,92.45
2023-02-14T00:08:37.086Z,92.68
2023-02-14T00:09:39.621Z,92.52
2023-02-14T00:10:44.154Z,92.68
2023-02-14T00:11:48.081Z,93.53
2023-02-14T00:12:49.736Z,94.36
2023-02-14T00:14:06.468Z,95.44
2023-02-14T00:15:25.708Z,94.92
2023-02-14T00:16:27.315Z,96.10
2023-02-14T00:17:29.052Z,97.16
2023-02-14T00:18:45.566Z,96.84
2023-02-14T00:19:48.460Z,95.83
2023-02-14T00:20:50.045Z,94.91
2023-02-14T00:21:52.711Z,93.94
2023-02-14T00:22:55.722Z,92.90
2023-02-14T00:23:57.426Z,91.92
2023-02-14T00:24:59.967Z,91.53
2023-02-14T00:26:01.726Z,91.76
2023-02-14T00:27:05.682Z,91.79
2023-02-14T00:28:07.349Z,92.14
2023-02-14T00:29:12.070Z,95.27
2023-02-14T00:30:14.147Z,96.27
2023-02-14T00:31:16.924Z,96.92
2023-02-14T00:32:18.591Z,96.98
2023-02-14T00:33:21.159Z,97.57
2023-02-14T00:34:22.818Z,96.73
2023-02-14T00:35:25.346Z,96.38
2023-02-14T00:36:27.180Z,97.13
2023-02-14T00:37:29.726Z,97.02
2023-02-14T00:38:31.292Z,97.81
2023-02-14T00:39:33.835Z,97.17
2023-02-14T00:40:35.776Z,96.44
2023-02-14T00:41:38.781Z,95.80
2023-02-14T00:42:41.992Z,96.62
2023-02-14T00:43:44.500Z,97.40
2023-02-14T00:44:46.280Z,98.20
2023-02-14T00:45:49.555Z,98.10
2023-02-14T00:46:51.182Z,97.48
2023-02-14T00:47:53.778Z,96.87
2023-02-14T00:48:55.466Z,96.19
2023-02-14T00:50:02.751Z,95.21
2023-02-14T00:51:04.683Z,94.44
2023-02-14T00:52:07.210Z,93.82
2023-02-14T00:53:08.791Z,93.49
2023-02-14T00:54:11.544Z,93.99
2023-02-14T00:55:13.135Z,93.88
2023-02-14T00:56:16.270Z,93.45
2023-02-14T00:57:17.935Z,93.54
2023-02-14T00:58:22.103Z,93.21
2023-02-14T00:59:23.684Z,93.52
2023-02-14T01:00:26.462Z,92.93
2023-02-14T01:01:28.181Z,92.63
2023-02-14T01:02:30.745Z,93.26
2023-02-14T01:03:32.662Z,93.33
2023-02-14T01:04:35.988Z,93.19
2023-02-14T01:05:37.543Z,92.67
2023-02-14T01:06:40.127Z,93.05
2023-02-14T01:07:41.680Z,93.27
2023-02-14T01:08:44.652Z,93.54
2023-02-14T01:09:47.433Z,94.34
2023-02-14T01:10:49.029Z,94.35
2023-02-14T01:11:51.607Z,94.06
2023-02-14T01:12:53.351Z,93.47
2023-02-14T01:13:59.492Z,93.05
2023-02-14T01:15:01.053Z,93.19
2023-02-14T01:16:07.842Z,92.94
2023-02-14T01:17:09.464Z,92.90
2023-02-14T01:18:12.214Z,92.62
2023-02-14T01:19:14.315Z,91.83
2023-02-14T01:20:17.148Z,91.78
2023-02-14T01:21:20.807Z,91.45
2023-02-14T01:22:23.464Z,91.18
2023-02-14T01:23:25.459Z,91.37
2023-02-14T01:24:29.700Z,90.84
2023-02-14T01:25:31.825Z,90.53
2023-02-14T01:26:35.936Z,91.09
2023-02-14T01:27:37.704Z,90.77
2023-02-14T01:28:40.326Z,90.80
2023-02-14T01:29:44.359Z,90.96
2023-02-14T01:30:45.952Z,90.77
2023-02-14T01:31:49.421Z,91.15
2023-02-14T01:32:51.059Z,91.31
2023-02-14T01:33:54.656Z,91.43
2023-02-14T01:34:56.245Z,91.74
2023-02-14T01:36:00.676Z,91.32
2023-02-14T01:37:03.498Z,91.46
2023-02-14T01:38:05.037Z,91.37
2023-02-14T01:39:10.140Z,91.46
2023-02-14T01:40:13.947Z,91.58
2023-02-14T01:41:16.587Z,91.42
2023-02-14T01:42:18.244Z,92.43
2023-02-14T01:43:20.929Z,92.47
2023-02-14T01:45:07.527Z,93.68
2023-02-14T01:46:10.919Z,94.86
2023-02-14T01:47:13.665Z,95.73
2023-02-14T01:48:17.253Z,96.56
2023-02-14T01:49:25.692Z,96.81
2023-02-14T01:50:34.242Z,96.60
2023-02-14T01:51:39.546Z,95.86
2023-02-14T01:52:49.403Z,95.72
2023-02-14T01:53:53.324Z,94.86
2023-02-14T01:54:58.402Z,94.46
2023-02-14T01:56:04.694Z,94.29
2023-02-14T01:57:09.749Z,95.09
2023-02-14T01:58:16.442Z,95.49
2023-02-14T01:59:21.182Z,95.05
2023-02-14T02:00:45.354Z,94.98
2023-02-14T02:01:56.975Z,94.81
2023-02-14T02:03:00.009Z,94.93
2023-02-14T02:04:08.227Z,95.18
2023-02-14T02:05:10.201Z,94.22
2023-02-14T02:06:17.630Z,94.17
2023-02-14T02:07:23.740Z,93.55
2023-02-14T02:08:27.349Z,93.78
2023-02-14T02:09:35.606Z,93.68
2023-02-14T02:10:37.223Z,93.23
2023-02-14T02:11:40.168Z,92.84
2023-02-14T02:12:42.216Z,92.76
2023-02-14T02:13:44.778Z,92.75
2023-02-14T02:14:50.900Z,92.55
2023-02-14T02:16:07.980Z,92.25
2023-02-14T02:17:26.335Z,91.73
2023-02-14T02:18:42.070Z,92.07
2023-02-14T02:20:25.636Z,91.85
2023-02-14T02:22:05.438Z,91.55
2023-02-14T02:23:33.355Z,91.66
2023-02-14T02:24:48.447Z,91.31
2023-02-14T02:26:22.360Z,91.55
2023-02-14T02:27:39.597Z,91.45
2023-02-14T02:29:08.810Z,91.41
2023-02-14T02:30:54.108Z,91.57
2023-02-14T02:32:26.538Z,91.86
2023-02-14T02:34:03.758Z,91.82
2023-02-14T02:35:40.814Z,91.47
2023-02-14T02:37:04.889Z,91.69
2023-02-14T02:38:23.248Z,91.60
2023-02-14T02:39:41.003Z,92.31
2023-02-14T02:40:52.628Z,92.25
2023-02-14T02:42:13.150Z,92.13
2023-02-14T02:43:27.533Z,91.50
2023-02-14T02:44:40.837Z,91.51
2023-02-14T02:46:08.377Z,91.26
2023-02-14T02:47:20.370Z,91.13
2023-02-14T02:48:26.213Z,90.59
2023-02-14T02:49:54.970Z,90.64
2023-02-14T02:51:17.547Z,91.07
2023-02-14T02:52:44.812Z,91.42
2023-02-14T02:53:54.094Z,91.19
2023-02-14T02:55:01.010Z,91.08
2023-02-14T02:56:26.624Z,90.57
2023-02-14T02:57:34.674Z,90.41
2023-02-14T02:58:40.199Z,90.54
2023-02-14T02:59:47.176Z,90.49
2023-02-14T03:00:52.058Z,90.59
2023-02-14T03:02:00.697Z,90.73
2023-02-14T03:03:20.991Z,90.70
2023-02-14T03:04:41.879Z,90.42
2023-02-14T03:05:44.039Z,89.75
2023-02-14T03:06:49.050Z,90.10
2023-02-14T03:07:51.016Z,89.78
2023-02-14T03:08:55.251Z,90.02
2023-02-14T03:09:58.970Z,90.60
2023-02-14T03:11:04.125Z,90.33
2023-02-14T03:12:20.002Z,90.34
2023-02-14T03:13:58.480Z,89.71
2023-02-14T03:15:08.595Z,89.86
2023-02-14T03:16:28.283Z,90.12
2023-02-14T03:17:39.962Z,90.44
2023-02-14T03:18:59.046Z,90.75
2023-02-14T03:20:14.540Z,90.15
2023-02-14T03:21:26.005Z,90.22
2023-02-14T03:22:43.746Z,90.33
2023-02-14T03:23:53.842Z,91.27
2023-02-14T03:24:58.436Z,91.57
2023-02-14T03:26:12.647Z,91.99
2023-02-14T03:27:20.986Z,91.89
2023-02-14T03:28:31.056Z,91.36
2023-02-14T03:29:44.631Z,91.06
2023-02-14T03:30:53.839Z,90.61
2023-02-14T03:32:01.158Z,90.42
2023-02-14T03:33:08.055Z,90.93
2023-02-14T03:34:15.424Z,90.28
2023-02-14T03:35:23.958Z,90.04
2023-02-14T03:36:31.736Z,90.71
2023-02-14T03:37:41.653Z,90.45
2023-02-14T03:38:48.570Z,90.72
2023-02-14T03:39:59.584Z,90.36
2023-02-14T03:41:05.486Z,90.17
2023-02-14T03:42:12.603Z,89.84
2023-02-14T03:43:19.888Z,89.91
2023-02-14T03:44:25.846Z,90.28
2023-02-14T03:45:33.590Z,90.54
2023-02-14T03:46:40.731Z,90.12
2023-02-14T03:47:46.029Z,90.32
2023-02-14T03:48:51.573Z,91.00
2023-02-14T03:49:59.142Z,91.13
2023-02-14T03:51:02.819Z,90.88
2023-02-14T03:52:08.169Z,90.69
2023-02-14T03:53:13.457Z,90.33
2023-02-14T03:54:17.457Z,91.46
2023-02-14T03:55:25.034Z,91.14
2023-02-14T03:56:33.821Z,91.34
2023-02-14T03:57:40.289Z,91.67
2023-02-14T03:58:47.851Z,92.01
2023-02-14T03:59:50.080Z,92.71
2023-02-14T04:00:57.282Z,93.42
2023-02-14T04:02:06.156Z,93.52
2023-02-14T04:03:12.847Z,93.83
2023-02-14T04:04:15.964Z,94.05
2023-02-14T04:05:22.439Z,93.72
2023-02-14T04:06:24.106Z,93.03
2023-02-14T04:07:26.773Z,92.95
2023-02-14T04:08:30.318Z,92.54
2023-02-14T04:09:32.839Z,92.36
2023-02-14T04:10:34.378Z,92.40
2023-02-14T04:11:38.534Z,92.50
2023-02-14T04:12:40.122Z,92.38
2023-02-14T04:13:42.645Z,92.07
2023-02-14T04:14:44.343Z,91.85
2023-02-14T04:15:47.060Z,91.92
2023-02-14T04:17:03.597Z,91.17
2023-02-14T04:18:29.081Z,91.48
2023-02-14T04:19:30.632Z,91.79
2023-02-14T04:20:34.079Z,91.86
2023-02-14T04:21:35.664Z,92.14
2023-02-14T04:22:38.229Z,92.10
2023-02-14T04:23:41.148Z,91.68
2023-02-14T04:24:43.951Z,91.42
2023-02-14T04:25:46.529Z,91.14
2023-02-14T04:27:10.579Z,90.88
2023-02-14T04:28:14.040Z,89.71
2023-02-14T04:29:15.585Z,89.73
2023-02-14T04:30:20.960Z,89.52
2023-02-14T04:31:22.826Z,89.48
2023-02-14T04:32:25.603Z,89.69
2023-02-14T04:33:27.254Z,89.29
2023-02-14T04:34:29.872Z,89.48
2023-02-14T04:35:31.569Z,89.67
2023-02-14T04:36:34.163Z,89.30
2023-02-14T04:37:35.786Z,89.65
2023-02-14T04:38:38.722Z,89.97
2023-02-14T04:39:41.660Z,89.90
2023-02-14T04:40:45.267Z,89.55
2023-02-14T04:41:46.917Z,89.16
2023-02-14T04:42:49.647Z,89.60
2023-02-14T04:43:51.339Z,89.30
2023-02-14T04:44:53.988Z,89.56
2023-02-14T04:45:55.900Z,89.77
2023-02-14T04:47:00.339Z,89.46
2023-02-14T04:48:04.337Z,89.22
2023-02-14T04:49:06.857Z,89.41
2023-02-14T04:50:11.914Z,89.61
2023-02-14T04:51:13.663Z,89.51
2023-02-14T04:52:16.654Z,89.21
2023-02-14T04:53:19.482Z,89.49
2023-02-14T04:54:22.068Z,89.34
2023-02-14T04:55:26.355Z,89.10
2023-02-14T04:56:29.211Z,88.50
2023-02-14T04:57:32.312Z,88.44
2023-02-14T04:58:33.999Z,87.95
2023-02-14T04:59:36.630Z,88.12
2023-02-14T05:00:38.213Z,88.40
2023-02-14T05:01:40.923Z,88.79
2023-02-14T05:02:42.474Z,88.72
2023-02-14T05:03:45.078Z,88.96
2023-02-14T05:04:49.901Z,88.90
2023-02-14T05:05:51.757Z,88.58
2023-02-14T05:06:54.313Z,88.38
2023-02-14T05:07:56.203Z,88.56
2023-02-14T05:08:58.846Z,88.37
2023-02-14T05:10:00.435Z,88.49
2023-02-14T05:11:04.398Z,88.38
2023-02-14T05:12:07.484Z,88.62
2023-02-14T05:13:09.170Z,88.86
2023-02-14T05:14:11.805Z,88.98
2023-02-14T05:15:13.396Z,88.73
2023-02-14T05:16:15.967Z,88.59
2023-02-14T05:17:17.892Z,88.51
2023-02-14T05:18:20.418Z,88.22
2023-02-14T05:19:22.274Z,88.05
2023-02-14T05:20:24.755Z,87.85
2023-02-14T05:21:28.501Z,87.93
2023-02-14T05:22:30.089Z,88.07
2023-02-14T05:23:32.656Z,88.32
2023-02-14T05:24:34.206Z,88.23
2023-02-14T05:25:36.676Z,87.83
2023-02-14T05:26:41.195Z,87.64
2023-02-14T05:27:43.692Z,87.61
2023-02-14T05:28:45.367Z,87.09
2023-02-14T05:29:48.186Z,87.19
2023-02-14T05:30:50.897Z,87.39
2023-02-14T05:31:53.660Z,88.09
2023-02-14T05:32:55.456Z,88.57
2023-02-14T05:33:59.103Z,88.77
2023-02-14T05:35:13.151Z,88.67
2023-02-14T05:36:14.816Z,88.84
2023-02-14T05:37:20.230Z,88.98
2023-02-14T05:38:21.955Z,89.29
2023-02-14T05:39:24.613Z,88.59
2023-02-14T05:40:26.721Z,88.74
2023-02-14T05:41:29.498Z,88.58
2023-02-14T05:42:32.440Z,88.56
2023-02-14T05:43:39.052Z,88.72
2023-02-14T05:44:40.672Z,88.93
2023-02-14T05:45:43.261Z,88.65
2023-02-14T05:46:45.053Z,88.54
2023-02-14T05:47:49.647Z,88.54
2023-02-14T05:48:51.271Z,88.65
2023-02-14T05:49:53.787Z,88.67
2023-02-14T05:50:55.388Z,88.42
2023-02-14T05:51:57.929Z,88.27
2023-02-14T05:53:00.941Z,88.08
2023-02-14T05:54:05.001Z,87.90
2023-02-14T05:55:07.876Z,87.55
2023-02-14T05:56:10.882Z,87.58
2023-02-14T05:57:12.499Z,87.42
2023-02-14T05:58:16.313Z,88.10
2023-02-14T05:59:17.854Z,88.27
2023-02-14T06:00:24.143Z,88.01
2023-02-14T06:01:25.879Z,88.46
2023-02-14T06:02:28.719Z,88.60
2023-02-14T06:03:30.316Z,88.86
2023-02-14T06:04:32.886Z,88.96
2023-02-14T06:05:34.637Z,89.14
2023-02-14T06:06:37.271Z,89.27
2023-02-14T06:07:38.875Z,88.98
2023-02-14T06:08:41.491Z,88.96
2023-02-14T06:09:43.270Z,88.75
2023-02-14T06:10:45.773Z,88.48
2023-02-14T06:11:48.284Z,88.66
2023-02-14T06:12:51.385Z,89.04
2023-02-14T06:13:55.320Z,88.96
2023-02-14T06:14:56.884Z,88.78
2023-02-14T06:15:59.894Z,89.27
2023-02-14T06:17:02.496Z,89.49
2023-02-14T06:18:05.389Z,89.49
2023-02-14T06:19:08.008Z,89.50
2023-02-14T06:20:10.507Z,89.32
2023-02-14T06:21:13.104Z,88.62
2023-02-14T06:22:14.768Z,88.43
2023-02-14T06:23:17.661Z,88.71
2023-02-14T06:24:19.524Z,88.98
2023-02-14T06:25:23.067Z,89.20
2023-02-14T06:26:27.961Z,88.94
2023-02-14T06:27:30.663Z,89.09
2023-02-14T06:28:33.553Z,88.71
2023-02-14T06:29:37.583Z,88.86
2023-02-14T06:30:40.388Z,88.57
2023-02-14T06:31:42.441Z,88.33
2023-02-14T06:32:45.873Z,87.97
2023-02-14T06:33:48.698Z,88.58
2023-02-14T06:34:50.399Z,89.42
2023-02-14T06:35:54.691Z,89.37
2023-02-14T06:36:56.466Z,89.99
2023-02-14T06:37:59.023Z,90.42
2023-02-14T06:39:01.043Z,89.80
2023-02-14T06:40:03.633Z,89.89
2023-02-14T06:41:07.206Z,89.55
2023-02-14T06:42:08.958Z,89.60
2023-02-14T06:43:11.771Z,89.01
2023-02-14T06:44:13.329Z,88.91
2023-02-14T06:45:17.279Z,88.85
2023-02-14T06:46:19.164Z,88.32
2023-02-14T06:47:21.812Z,88.37
2023-02-14T06:48:23.844Z,87.58
2023-02-14T06:49:26.522Z,88.08
2023-02-14T06:50:29.152Z,88.88
2023-02-14T06:51:30.848Z,89.51
2023-02-14T06:52:33.973Z,90.41
2023-02-14T06:53:38.058Z,90.55
2023-02-14T06:54:43.463Z,90.11
2023-02-14T06:55:45.663Z,89.38
2023-02-14T06:56:48.215Z,88.73
2023-02-14T06:57:50.830Z,87.88
2023-02-14T06:58:53.654Z,87.85
2023-02-14T06:59:55.423Z,87.76
2023-02-14T07:01:00.433Z,88.25
2023-02-14T07:02:02.317Z,88.58
2023-02-14T07:03:04.966Z,88.42
2023-02-14T07:04:06.643Z,88.63
2023-02-14T07:05:09.889Z,87.99
2023-02-14T07:06:12.549Z,88.03
2023-02-14T07:07:15.194Z,87.19
2023-02-14T07:08:17.747Z,86.37
2023-02-14T07:09:22.003Z,86.74
2023-02-14T07:10:24.628Z,87.20
2023-02-14T07:11:28.652Z,86.88
2023-02-14T07:12:31.384Z,87.20
2023-02-14T07:13:33.043Z,87.02
2023-02-14T07:14:37.946Z,86.85
2023-02-14T07:15:40.824Z,86.99
2023-02-14T07:16:43.883Z,87.30
2023-02-14T07:17:47.127Z,87.28
2023-02-14T07:18:49.344Z,87.23
2023-02-14T07:19:55.747Z,87.45
2023-02-14T07:20:58.992Z,87.09
2023-02-14T07:22:01.872Z,86.76
2023-02-14T07:23:05.236Z,86.58
2023-02-14T07:24:08.059Z,86.95
2023-02-14T07:25:09.740Z,86.92
2023-02-14T07:26:12.414Z,86.64
2023-02-14T07:27:14.196Z,86.56
2023-02-14T07:28:16.959Z,86.08
2023-02-14T07:29:19.943Z,86.98
2023-02-14T07:30:23.183Z,86.81
2023-02-14T07:31:26.028Z,86.84
2023-02-14T07:32:29.127Z,87.40
2023-02-14T07:33:31.674Z,87.92
2023-02-14T07:34:34.336Z,88.30
2023-02-14T07:35:36.154Z,88.61
2023-02-14T07:36:38.913Z,88.69
2023-02-14T07:37:40.512Z,88.48
2023-02-14T07:38:43.247Z,88.03
2023-02-14T07:39:46.057Z,88.65
2023-02-14T07:40:50.700Z,89.02
2023-02-14T07:41:52.475Z,89.40
2023-02-14T07:42:56.008Z,89.09
2023-02-14T07:43:57.618Z,88.50
2023-02-14T07:45:03.138Z,87.58
2023-02-14T07:46:06.801Z,87.78
2023-02-14T07:47:10.840Z,88.20
2023-02-14T07:48:15.222Z,87.74
2023-02-14T07:49:17.990Z,87.27
2023-02-14T07:50:23.383Z,87.17
2023-02-14T07:51:27.255Z,86.84
2023-02-14T07:52:28.878Z,86.40
2023-02-14T07:53:31.735Z,85.84
2023-02-14T07:54:33.544Z,87.53
2023-02-14T07:55:36.440Z,88.44
2023-02-14T07:56:38.980Z,88.72
2023-02-14T07:57:40.893Z,88.93
2023-02-14T07:58:43.485Z,88.62
2023-02-14T07:59:46.006Z,88.31
2023-02-14T08:00:48.596Z,88.04
2023-02-14T08:01:50.205Z,88.04
2023-02-14T08:02:52.900Z,88.79
2023-02-14T08:03:57.172Z,89.08
2023-02-14T08:04:58.953Z,88.41
2023-02-14T08:06:01.630Z,88.59
2023-02-14T08:07:03.482Z,88.50
2023-02-14T08:08:06.073Z,88.65
2023-02-14T08:09:10.173Z,88.12
2023-02-14T08:10:13.372Z,88.47
2023-02-14T08:11:37.245Z,89.08
2023-02-14T08:12:57.662Z,89.72
2023-02-14T08:14:00.331Z,89.28
2023-02-14T08:15:16.828Z,89.79
2023-02-14T08:16:19.683Z,89.42
2023-02-14T08:17:21.486Z,89.57
2023-02-14T08:18:24.189Z,89.87
2023-02-14T08:19:30.581Z,90.74
2023-02-14T08:20:32.282Z,90.77
2023-02-14T08:21:35.610Z,90.07
2023-02-14T08:22:37.215Z,90.18
2023-02-14T08:23:40.592Z,89.36
2023-02-14T08:24:42.466Z,89.79
2023-02-14T08:25:45.157Z,89.34
2023-02-14T08:26:47.889Z,89.47
2023-02-14T08:27:49.574Z,89.23
2023-02-14T08:28:52.351Z,88.95
2023-02-14T08:29:54.083Z,89.71
2023-02-14T08:30:56.913Z,89.88
2023-02-14T08:32:00.576Z,90.86
2023-02-14T08:33:03.310Z,90.79
2023-02-14T08:34:05.895Z,90.91
2023-02-14T08:35:09.335Z,90.22
2023-02-14T08:36:12.043Z,89.47
2023-02-14T08:37:13.893Z,89.34
2023-02-14T08:38:17.990Z,90.03
2023-02-14T08:39:20.863Z,89.98
2023-02-14T08:40:22.612Z,89.97
2023-02-14T08:41:25.704Z,90.03
2023-02-14T08:42:27.462Z,90.70
2023-02-14T08:43:30.214Z,92.07
2023-02-14T08:44:33.602Z,92.31
2023-02-14T08:45:36.423Z,92.09
2023-02-14T08:46:39.107Z,91.43
2023-02-14T08:47:40.918Z,91.65
2023-02-14T08:48:44.393Z,90.82
2023-02-14T08:49:47.056Z,90.89
2023-02-14T08:50:51.197Z,90.78
2023-02-14T08:51:54.558Z,90.46
2023-02-14T08:52:57.260Z,89.62
2023-02-14T08:53:59.829Z,89.65
2023-02-14T08:55:02.524Z,89.73
2023-02-14T08:56:05.641Z,89.33
2023-02-14T08:57:07.527Z,89.07
2023-02-14T08:58:10.262Z,89.35
2023-02-14T08:59:15.680Z,89.18
2023-02-14T09:00:18.872Z,88.75
2023-02-14T09:01:22.071Z,88.42
2023-02-14T09:02:25.333Z,89.22
2023-02-14T09:03:26.840Z,89.05
2023-02-14T09:04:29.617Z,88.69
2023-02-14T09:05:32.538Z,89.24
2023-02-14T09:06:38.613Z,89.16
2023-02-14T09:07:41.496Z,88.41
2023-02-14T09:08:44.393Z,88.40
2023-02-14T09:09:47.167Z,88.91
2023-02-14T09:10:49.757Z,88.92
2023-02-14T09:11:52.334Z,88.69
2023-02-14T09:12:55.091Z,88.92
2023-02-14T09:13:57.825Z,88.15
2023-02-14T09:15:00.331Z,88.28
2023-02-14T09:16:05.023Z,88.43
2023-02-14T09:17:08.255Z,88.47
2023-02-14T09:18:10.997Z,88.52
2023-02-14T09:19:14.927Z,88.96
2023-02-14T09:20:17.802Z,88.77
2023-02-14T09:21:24.051Z,88.99
2023-02-14T09:22:28.643Z,89.00
2023-02-14T09:23:30.323Z,89.27
2023-02-14T09:24:34.502Z,89.02
2023-02-14T09:25:37.266Z,88.39
2023-02-14T09:26:42.100Z,87.45
2023-02-14T09:27:44.672Z,88.05
2023-02-14T09:28:47.632Z,87.53
2023-02-14T09:29:50.138Z,88.20
2023-02-14T09:30:54.067Z,88.16
2023-02-14T09:31:59.739Z,87.79
2023-02-14T09:33:05.460Z,88.02
2023-02-14T09:34:08.122Z,87.79
2023-02-14T09:35:27.967Z,87.46
2023-02-14T09:36:48.460Z,87.65
2023-02-14T09:38:10.105Z,87.56
2023-02-14T09:39:12.908Z,87.58
2023-02-14T09:40:17.861Z,87.47
2023-02-14T09:41:49.973Z,87.17
2023-02-14T09:43:02.295Z,86.55
2023-02-14T09:44:08.152Z,85.48
2023-02-14T09:45:14.388Z,85.78
2023-02-14T09:46:18.968Z,87.17
2023-02-14T09:47:26.943Z,87.38
2023-02-14T09:48:36.323Z,87.13
2023-02-14T09:49:39.890Z,86.19
2023-02-14T09:50:46.830Z,86.99
2023-02-14T09:51:53.313Z,87.69
2023-02-14T09:53:01.533Z,87.24
2023-02-14T09:54:12.066Z,87.01
2023-02-14T09:55:17.316Z,87.03
2023-02-14T09:56:26.714Z,85.88
2023-02-14T09:57:40.888Z,86.27
2023-02-14T09:58:51.323Z,86.28
2023-02-14T09:59:57.877Z,86.97
2023-02-14T10:01:06.357Z,85.46
2023-02-14T10:02:34.861Z,85.54
2023-02-14T10:03:47.055Z,85.47
2023-02-14T10:05:05.709Z,84.29
2023-02-14T10:06:18.785Z,84.46
2023-02-14T10:07:32.275Z,84.31
2023-02-14T10:08:48.636Z,84.00
2023-02-14T10:09:58.174Z,85.66
2023-02-14T10:11:06.757Z,85.53
2023-02-14T10:12:14.413Z,85.67
2023-02-14T10:13:24.572Z,84.59
2023-02-14T10:14:29.907Z,83.65
2023-02-14T10:15:35.734Z,82.17
2023-02-14T10:16:42.660Z,82.16
2023-02-14T10:17:49.157Z,81.71
2023-02-14T10:18:55.421Z,80.64
2023-02-14T10:20:02.876Z,79.15
2023-02-14T10:21:08.896Z,77.96
2023-02-14T10:22:14.801Z,78.63
2023-02-14T10:23:31.312Z,77.60
2023-02-14T10:24:41.767Z,77.94
2023-02-14T10:25:49.778Z,76.64
2023-02-14T10:26:57.750Z,76.42
2023-02-14T10:28:03.101Z,79.02
2023-02-14T10:29:09.569Z,79.03
2023-02-14T10:30:17.338Z,77.36
2023-02-14T10:31:22.837Z,77.97
2023-02-14T10:32:32.951Z,76.66
2023-02-14T10:33:39.431Z,75.89
2023-02-14T10:34:47.874Z,74.10
2023-02-14T10:35:51.045Z,72.44
2023-02-14T10:37:05.210Z,70.55
2023-02-14T10:38:24.084Z,67.02
2023-02-14T10:39:48.866Z,63.82
2023-02-14T10:41:23.786Z,61.62
2023-02-14T10:42:34.224Z,62.84
2023-02-14T10:43:48.902Z,59.21
2023-02-14T10:45:00.556Z,58.52
2023-02-14T10:46:15.951Z,56.24
2023-02-14T10:47:34.170Z,54.52
2023-02-14T10:48:52.340Z,51.25
2023-02-14T10:50:06.570Z,52.56
2023-02-14T10:51:17.413Z,51.78
2023-02-14T10:52:24.635Z,51.49
2023-02-14T10:53:37.178Z,49.73
2023-02-14T10:54:45.061Z,48.57
2023-02-14T10:55:54.998Z,47.71
2023-02-14T10:57:06.134Z,46.08
2023-02-14T10:58:15.537Z,45.05
2023-02-14T10:59:23.695Z,45.81
2023-02-14T11:00:29.560Z,44.91
2023-02-14T11:01:32.351Z,44.25
2023-02-14T11:02:37.985Z,43.18
2023-02-14T11:03:45.294Z,43.40
2023-02-14T11:04:49.399Z,42.87
2023-02-14T11:05:52.565Z,42.87
2023-02-14T11:06:54.486Z,44.06
2023-02-14T11:07:58.995Z,44.81
2023-02-14T11:09:01.887Z,46.82
2023-02-14T11:10:12.533Z,45.91
2023-02-14T11:11:20.464Z,45.31
2023-02-14T11:12:34.891Z,45.80
2023-02-14T11:13:39.382Z,45.97
2023-02-14T11:14:42.081Z,44.79
2023-02-14T11:15:49.318Z,42.36
2023-02-14T11:16:55.341Z,43.17
2023-02-14T11:18:18.034Z,43.79
2023-02-14T11:19:25.414Z,42.64
2023-02-14T11:20:31.035Z,43.07
2023-02-14T11:21:39.220Z,43.31
2023-02-14T11:22:41.806Z,41.23
2023-02-14T11:23:46.533Z,40.02
2023-02-14T11:24:49.238Z,40.22
2023-02-14T11:25:55.669Z,38.92
2023-02-14T11:27:00.774Z,40.60
2023-02-14T11:28:05.156Z,40.50
2023-02-14T11:29:14.413Z,40.39
2023-02-14T11:30:24.225Z,39.81
2023-02-14T11:31:30.028Z,39.22
2023-02-14T11:32:37.756Z,39.25
2023-02-14T11:33:44.239Z,38.82
2023-02-14T11:34:53.916Z,39.24
2023-02-14T11:35:57.548Z,38.99
2023-02-14T11:37:00.905Z,37.51
2023-02-14T11:38:05.798Z,38.28
2023-02-14T11:39:25.806Z,38.08
2023-02-14T11:40:31.056Z,38.74
2023-02-14T11:41:51.427Z,38.43
2023-02-14T11:43:02.155Z,39.24
2023-02-14T11:44:27.145Z,38.80
2023-02-14T11:45:33.844Z,38.72
2023-02-14T11:46:44.390Z,38.54
2023-02-14T11:48:10.416Z,40.70
2023-02-14T11:49:31.293Z,38.16
2023-02-14T11:50:33.293Z,38.67
2023-02-14T11:51:40.677Z,38.33
2023-02-14T11:52:51.434Z,37.87
2023-02-14T11:53:55.965Z,37.22
2023-02-14T11:54:59.666Z,36.86
2023-02-14T11:56:04.056Z,37.51
2023-02-14T11:57:14.910Z,37.23
2023-02-14T11:58:32.395Z,37.37
2023-02-14T11:59:41.945Z,37.52
2023-02-14T12:00:51.954Z,37.60
2023-02-14T12:01:56.756Z,36.85
2023-02-14T12:03:01.988Z,36.97
2023-02-14T12:04:07.406Z,35.90
2023-02-14T12:05:20.703Z,36.30
2023-02-14T12:06:25.492Z,37.50
2023-02-14T12:07:31.984Z,38.33
2023-02-14T12:08:37.607Z,38.48
2023-02-14T12:09:41.517Z,37.70
2023-02-14T12:10:44.112Z,37.18
2023-02-14T12:11:56.513Z,37.56
2023-02-14T12:13:04.017Z,37.95
2023-02-14T12:14:07.221Z,36.83
2023-02-14T12:15:34.773Z,36.96
2023-02-14T12:16:47.376Z,36.03
2023-02-14T12:17:53.876Z,36.83
2023-02-14T12:19:01.159Z,35.85
2023-02-14T12:20:12.947Z,37.46
2023-02-14T12:21:26.877Z,36.11
2023-02-14T12:22:34.400Z,35.68
2023-02-14T12:23:47.524Z,36.48
2023-02-14T12:24:58.614Z,38.18
2023-02-14T12:26:07.362Z,40.32
2023-02-14T12:27:22.802Z,40.43
2023-02-14T12:28:31.819Z,41.26
2023-02-14T12:29:39.913Z,41.60
2023-02-14T12:30:42.922Z,43.13
2023-02-14T12:31:47.248Z,47.78
2023-02-14T12:32:51.538Z,49.97
2023-02-14T12:33:54.612Z,49.99
2023-02-14T12:35:03.191Z,45.17
2023-02-14T12:36:14.142Z,42.86
2023-02-14T12:37:27.501Z,41.20
2023-02-14T12:38:39.711Z,40.13
2023-02-14T12:39:59.935Z,40.59
2023-02-14T12:41:17.200Z,39.14
2023-02-14T12:42:35.096Z,38.05
2023-02-14T12:43:50.727Z,37.10
2023-02-14T12:45:04.815Z,37.87
2023-02-14T12:46:21.653Z,37.59
2023-02-14T12:47:34.750Z,38.40
2023-02-14T12:48:51.265Z,40.48
2023-02-14T12:50:33.740Z,47.11
2023-02-14T12:51:43.380Z,45.72
2023-02-14T12:52:56.222Z,44.29
2023-02-14T12:54:15.988Z,44.65
2023-02-14T12:55:48.366Z,45.62
2023-02-14T12:57:01.688Z,46.22
2023-02-14T12:58:19.342Z,44.38
2023-02-14T12:59:31.932Z,46.13
2023-02-14T13:00:47.779Z,44.42
2023-02-14T13:02:32.387Z,42.16
2023-02-14T13:03:59.746Z,42.27
2023-02-14T13:05:10.112Z,43.39
2023-02-14T13:06:19.596Z,42.81
2023-02-14T13:07:50.565Z,43.67
2023-02-14T13:09:01.571Z,45.62
2023-02-14T13:10:14.978Z,47.75
2023-02-14T13:11:28.984Z,47.79
2023-02-14T13:12:38.417Z,45.07
2023-02-14T13:13:53.550Z,42.43
2023-02-14T13:15:07.810Z,41.69
2023-02-14T13:16:18.438Z,40.43
2023-02-14T13:17:27.327Z,38.28
2023-02-14T13:18:40.725Z,38.29
2023-02-14T13:19:49.639Z,39.49
2023-02-14T13:20:54.477Z,42.20
2023-02-14T13:21:59.838Z,45.68
2023-02-14T13:23:12.015Z,46.80
2023-02-14T13:24:19.378Z,46.03
2023-02-14T13:25:31.887Z,44.93
2023-02-14T13:26:39.609Z,47.13
2023-02-14T13:27:42.835Z,45.69
2023-02-14T13:28:51.703Z,47.81
2023-02-14T13:29:58.127Z,47.13
2023-02-14T13:31:02.858Z,46.09
2023-02-14T13:32:06.575Z,43.02
2023-02-14T13:33:15.516Z,40.97
2023-02-14T13:34:25.455Z,39.92
2023-02-14T13:35:30.395Z,39.68
2023-02-14T13:36:33.878Z,40.77
2023-02-14T13:37:38.091Z,40.93
2023-02-14T13:38:45.861Z,40.92
2023-02-14T13:39:52.860Z,41.79
2023-02-14T13:40:56.498Z,43.10
2023-02-14T13:41:59.326Z,44.71
2023-02-14T13:43:02.009Z,47.17
2023-02-14T13:44:05.587Z,48.14
2023-02-14T13:45:53.840Z,46.84
2023-02-14T13:46:58.233Z,47.97
2023-02-14T13:48:04.824Z,46.03
2023-02-14T13:49:27.867Z,45.33
2023-02-14T13:50:29.609Z,46.71
2023-02-14T13:51:46.214Z,47.66
2023-02-14T13:52:50.090Z,46.78
2023-02-14T13:53:55.734Z,44.45
2023-02-14T13:55:03.271Z,43.38
2023-02-14T13:56:27.179Z,42.83
2023-02-14T13:57:34.070Z,41.83
2023-02-14T13:58:35.934Z,45.41
2023-02-14T13:59:38.815Z,49.55
2023-02-14T14:00:42.401Z,52.20
2023-02-14T14:01:50.087Z,52.26
2023-02-14T14:02:59.070Z,51.88
2023-02-14T14:04:04.317Z,52.59
2023-02-14T14:05:42.873Z,53.36
2023-02-14T14:07:16.337Z,54.25
2023-02-14T14:08:39.492Z,53.89
2023-02-14T14:09:59.570Z,51.91
2023-02-14T14:11:04.907Z,51.75
2023-02-14T14:12:38.550Z,49.64
2023-02-14T14:14:02.206Z,49.28
2023-02-14T14:15:19.319Z,49.05
2023-02-14T14:16:29.396Z,50.86
2023-02-14T14:17:33.659Z,50.30
2023-02-14T14:18:42.870Z,51.92
2023-02-14T14:19:47.126Z,49.09
2023-02-14T14:20:50.018Z,47.18
2023-02-14T14:22:02.008Z,46.06